sensor_id;sensor_type;location;lat;lon;timestamp;pressure;altitude;pressure_sealevel;temperature;humidity
62655;BME280;48717;55.556;37.816;2023-02-07T00:01:22;101186.88;;;-6.76;77.67
62655;BME280;48717;55.556;37.816;2023-02-07T00:03:50;101189.31;;;-6.77;77.36
62655;BME280;48717;55.556;37.816;2023-02-07T00:06:25;101150.28;;;-7.03;77.09
62655;BME280;48717;55.556;37.816;2023-02-07T00:08:53;101189.03;;;-6.80;77.17
62655;BME280;48717;55.556;37.816;2023-02-07T00:11:21;101189.38;;;-6.86;76.90
62655;BME280;48717;55.556;37.816;2023-02-07T00:13:52;101149.34;;;-7.03;76.03
62655;BME280;48717;55.556;37.816;2023-02-07T00:16:20;101197.22;;;-6.85;76.71
62655;BME280;48717;55.556;37.816;2023-02-07T00:18:47;101156.78;;;-7.06;76.22
62655;BME280;48717;55.556;37.816;2023-02-07T00:21:17;101202.13;;;-6.77;76.99
62655;BME280;48717;55.556;37.816;2023-02-07T00:23:45;101193.56;;;-6.78;76.75
62655;BME280;48717;55.556;37.816;2023-02-07T00:26:14;101175.34;;;-6.90;76.72
62655;BME280;48717;55.556;37.816;2023-02-07T00:28:44;101176.13;;;-6.91;76.58
62655;BME280;48717;55.556;37.816;2023-02-07T00:31:17;101205.53;;;-6.68;76.07
62655;BME280;48717;55.556;37.816;2023-02-07T00:33:46;101212.19;;;-6.70;75.83
62655;BME280;48717;55.556;37.816;2023-02-07T00:36:17;101178.50;;;-6.84;75.20
62655;BME280;48717;55.556;37.816;2023-02-07T00:38:45;101205.75;;;-6.75;75.21
62655;BME280;48717;55.556;37.816;2023-02-07T00:41:13;101182.78;;;-6.93;75.38
62655;BME280;48717;55.556;37.816;2023-02-07T00:43:41;101160.13;;;-7.08;75.70
62655;BME280;48717;55.556;37.816;2023-02-07T00:46:09;101221.28;;;-6.74;75.39
62655;BME280;48717;55.556;37.816;2023-02-07T00:48:36;101191.50;;;-6.91;75.21
62655;BME280;48717;55.556;37.816;2023-02-07T00:51:08;101212.69;;;-6.74;75.58
62655;BME280;48717;55.556;37.816;2023-02-07T00:53:35;101216.50;;;-6.79;75.54
62655;BME280;48717;55.556;37.816;2023-02-07T00:56:03;101221.91;;;-6.76;75.20
62655;BME280;48717;55.556;37.816;2023-02-07T00:58:30;101214.69;;;-6.80;75.24
62655;BME280;48717;55.556;37.816;2023-02-07T01:00:57;101191.59;;;-7.00;75.53
62655;BME280;48717;55.556;37.816;2023-02-07T01:03:24;101180.41;;;-7.00;75.63
62655;BME280;48717;55.556;37.816;2023-02-07T01:05:51;101199.22;;;-6.91;75.26
62655;BME280;48717;55.556;37.816;2023-02-07T01:08:24;101176.81;;;-7.02;75.11
62655;BME280;48717;55.556;37.816;2023-02-07T01:10:51;101215.31;;;-6.83;75.41
62655;BME280;48717;55.556;37.816;2023-02-07T01:13:18;101190.97;;;-6.97;75.52
62655;BME280;48717;55.556;37.816;2023-02-07T01:15:46;101211.84;;;-6.84;75.22
62655;BME280;48717;55.556;37.816;2023-02-07T01:18:14;101224.66;;;-6.84;74.93
62655;BME280;48717;55.556;37.816;2023-02-07T01:20:41;101205.41;;;-6.89;75.33
62655;BME280;48717;55.556;37.816;2023-02-07T01:23:09;101130.22;;;-7.26;75.59
62655;BME280;48717;55.556;37.816;2023-02-07T01:25:38;101201.16;;;-6.88;75.99
62655;BME280;48717;55.556;37.816;2023-02-07T01:28:05;101215.31;;;-6.83;75.92
62655;BME280;48717;55.556;37.816;2023-02-07T01:30:32;101235.56;;;-6.67;75.91
62655;BME280;48717;55.556;37.816;2023-02-07T01:33:00;101243.13;;;-6.69;75.47
62655;BME280;48717;55.556;37.816;2023-02-07T01:35:27;101234.22;;;-6.72;75.62
62655;BME280;48717;55.556;37.816;2023-02-07T01:37:54;101247.06;;;-6.72;75.33
62655;BME280;48717;55.556;37.816;2023-02-07T01:40:21;101235.44;;;-6.69;75.16
62655;BME280;48717;55.556;37.816;2023-02-07T01:42:48;101241.53;;;-6.77;75.75
62655;BME280;48717;55.556;37.816;2023-02-07T01:47:50;101216.41;;;-6.90;74.66
62655;BME280;48717;55.556;37.816;2023-02-07T01:50:18;101228.00;;;-6.85;75.34
62655;BME280;48717;55.556;37.816;2023-02-07T01:52:45;101224.66;;;-6.84;74.89
62655;BME280;48717;55.556;37.816;2023-02-07T01:55:17;101246.59;;;-6.68;75.72
62655;BME280;48717;55.556;37.816;2023-02-07T01:57:45;101255.16;;;-6.59;75.07
62655;BME280;48717;55.556;37.816;2023-02-07T02:00:14;101227.06;;;-6.76;74.48
62655;BME280;48717;55.556;37.816;2023-02-07T02:02:41;101249.78;;;-6.71;74.54
62655;BME280;48717;55.556;37.816;2023-02-07T02:05:11;101237.31;;;-6.76;75.04
62655;BME280;48717;55.556;37.816;2023-02-07T02:07:39;101214.41;;;-6.84;75.07
62655;BME280;48717;55.556;37.816;2023-02-07T02:10:15;101256.84;;;-6.68;74.55
62655;BME280;48717;55.556;37.816;2023-02-07T02:15:37;101267.59;;;-6.53;74.76
62655;BME280;48717;55.556;37.816;2023-02-07T02:21:41;101272.75;;;-6.53;74.39
62655;BME280;48717;55.556;37.816;2023-02-07T02:37:54;101278.13;;;-6.41;74.44
62655;BME280;48717;55.556;37.816;2023-02-07T02:43:24;101276.88;;;-6.36;74.70
62655;BME280;48717;55.556;37.816;2023-02-07T02:45:56;101269.66;;;-6.40;73.92
62655;BME280;48717;55.556;37.816;2023-02-07T02:48:27;101291.00;;;-6.31;72.67
62655;BME280;48717;55.556;37.816;2023-02-07T02:50:55;101298.72;;;-6.31;73.12
62655;BME280;48717;55.556;37.816;2023-02-07T02:53:23;101293.63;;;-6.39;72.80
62655;BME280;48717;55.556;37.816;2023-02-07T02:56:13;101291.22;;;-6.38;73.17
62655;BME280;48717;55.556;37.816;2023-02-07T03:07:17;101306.72;;;-6.27;72.24
62655;BME280;48717;55.556;37.816;2023-02-07T03:12:49;101281.09;;;-6.36;73.35
62655;BME280;48717;55.556;37.816;2023-02-07T03:15:25;101309.19;;;-6.19;73.24
62655;BME280;48717;55.556;37.816;2023-02-07T03:17:58;101282.25;;;-6.33;72.95
62655;BME280;48717;55.556;37.816;2023-02-07T03:20:36;101317.94;;;-6.17;73.02
62655;BME280;48717;55.556;37.816;2023-02-07T03:23:05;101319.31;;;-6.20;70.96
62655;BME280;48717;55.556;37.816;2023-02-07T03:25:35;101308.03;;;-6.22;71.19
62655;BME280;48717;55.556;37.816;2023-02-07T03:28:04;101335.00;;;-6.17;71.08
62655;BME280;48717;55.556;37.816;2023-02-07T03:30:36;101324.53;;;-6.29;70.96
62655;BME280;48717;55.556;37.816;2023-02-07T03:33:07;101326.66;;;-6.34;70.96
62655;BME280;48717;55.556;37.816;2023-02-07T03:35:53;101318.06;;;-6.53;70.96
62655;BME280;48717;55.556;37.816;2023-02-07T03:38:22;101371.38;;;-6.32;70.98
62655;BME280;48717;55.556;37.816;2023-02-07T03:40:55;101372.53;;;-6.28;71.06
62655;BME280;48717;55.556;37.816;2023-02-07T03:43:25;101374.19;;;-6.29;70.80
62655;BME280;48717;55.556;37.816;2023-02-07T03:45:57;101370.59;;;-6.31;71.14
62655;BME280;48717;55.556;37.816;2023-02-07T03:48:24;101386.78;;;-6.32;71.15
62655;BME280;48717;55.556;37.816;2023-02-07T03:50:51;101378.31;;;-6.31;71.33
62655;BME280;48717;55.556;37.816;2023-02-07T03:53:19;101400.31;;;-6.24;71.38
62655;BME280;48717;55.556;37.816;2023-02-07T03:55:46;101399.13;;;-6.27;70.98
62655;BME280;48717;55.556;37.816;2023-02-07T03:58:14;101412.44;;;-6.32;70.66
62655;BME280;48717;55.556;37.816;2023-02-07T04:00:41;101414.25;;;-6.31;70.71
62655;BME280;48717;55.556;37.816;2023-02-07T04:03:08;101390.75;;;-6.44;70.88
62655;BME280;48717;55.556;37.816;2023-02-07T04:05:35;101413.47;;;-6.30;70.94
62655;BME280;48717;55.556;37.816;2023-02-07T04:08:04;101413.63;;;-6.28;71.15
62655;BME280;48717;55.556;37.816;2023-02-07T04:10:31;101406.72;;;-6.38;71.00
62655;BME280;48717;55.556;37.816;2023-02-07T04:12:58;101414.25;;;-6.31;70.75
62655;BME280;48717;55.556;37.816;2023-02-07T04:15:25;101396.59;;;-6.36;71.27
62655;BME280;48717;55.556;37.816;2023-02-07T04:17:52;101405.22;;;-6.36;71.11
62655;BME280;48717;55.556;37.816;2023-02-07T04:20:19;101434.72;;;-6.22;71.17
62655;BME280;48717;55.556;37.816;2023-02-07T04:22:46;101429.94;;;-6.27;71.05
62655;BME280;48717;55.556;37.816;2023-02-07T04:25:13;101450.19;;;-6.31;71.13
62655;BME280;48717;55.556;37.816;2023-02-07T04:27:40;101418.28;;;-6.52;71.14
62655;BME280;48717;55.556;37.816;2023-02-07T04:30:08;101417.84;;;-6.57;70.85
62655;BME280;48717;55.556;37.816;2023-02-07T04:32:35;101456.56;;;-6.36;70.98
62655;BME280;48717;55.556;37.816;2023-02-07T04:35:02;101454.25;;;-6.33;70.77
62655;BME280;48717;55.556;37.816;2023-02-07T04:37:29;101442.66;;;-6.38;70.77
62655;BME280;48717;55.556;37.816;2023-02-07T04:39:56;101454.25;;;-6.33;71.65
62655;BME280;48717;55.556;37.816;2023-02-07T04:42:23;101411.38;;;-6.62;70.65
62655;BME280;48717;55.556;37.816;2023-02-07T04:44:50;101438.47;;;-6.46;70.47
62655;BME280;48717;55.556;37.816;2023-02-07T04:47:17;101454.47;;;-6.40;70.86
62655;BME280;48717;55.556;37.816;2023-02-07T04:49:44;101464.72;;;-6.40;70.91
62655;BME280;48717;55.556;37.816;2023-02-07T04:52:11;101469.56;;;-6.43;70.76
62655;BME280;48717;55.556;37.816;2023-02-07T04:54:38;101456.91;;;-6.50;70.86
62655;BME280;48717;55.556;37.816;2023-02-07T04:57:05;101484.50;;;-6.39;70.44
62655;BME280;48717;55.556;37.816;2023-02-07T04:59:33;101484.03;;;-6.35;71.24
62655;BME280;48717;55.556;37.816;2023-02-07T05:02:00;101497.03;;;-6.42;70.60
62655;BME280;48717;55.556;37.816;2023-02-07T05:04:27;101492.22;;;-6.48;70.85
62655;BME280;48717;55.556;37.816;2023-02-07T05:06:54;101506.44;;;-6.51;70.81
62655;BME280;48717;55.556;37.816;2023-02-07T05:09:21;101511.72;;;-6.50;70.60
62655;BME280;48717;55.556;37.816;2023-02-07T05:11:48;101487.75;;;-6.59;70.84
62655;BME280;48717;55.556;37.816;2023-02-07T05:14:15;101498.56;;;-6.44;70.26
62655;BME280;48717;55.556;37.816;2023-02-07T05:16:42;101509.88;;;-6.42;70.54
62655;BME280;48717;55.556;37.816;2023-02-07T05:19:09;101523.78;;;-6.40;70.78
62655;BME280;48717;55.556;37.816;2023-02-07T05:21:36;101520.59;;;-6.46;70.05
62655;BME280;48717;55.556;37.816;2023-02-07T05:24:03;101533.75;;;-6.43;70.88
62655;BME280;48717;55.556;37.816;2023-02-07T05:26:30;101528.47;;;-6.45;70.67
62655;BME280;48717;55.556;37.816;2023-02-07T05:28:57;101537.38;;;-6.41;70.39
62655;BME280;48717;55.556;37.816;2023-02-07T05:31:24;101516.38;;;-6.46;70.70
62655;BME280;48717;55.556;37.816;2023-02-07T05:34:12;101537.66;;;-6.38;70.41
62655;BME280;48717;55.556;37.816;2023-02-07T05:36:39;101550.31;;;-6.31;70.34
62655;BME280;48717;55.556;37.816;2023-02-07T05:39:06;101556.78;;;-6.25;70.61
62655;BME280;48717;55.556;37.816;2023-02-07T05:41:33;101548.22;;;-6.35;69.76
62655;BME280;48717;55.556;37.816;2023-02-07T05:44:00;101550.94;;;-6.42;69.72
62655;BME280;48717;55.556;37.816;2023-02-07T05:46:27;101548.69;;;-6.39;70.02
62655;BME280;48717;55.556;37.816;2023-02-07T05:48:54;101561.97;;;-6.34;69.99
62655;BME280;48717;55.556;37.816;2023-02-07T05:51:22;101567.09;;;-6.34;69.51
62655;BME280;48717;55.556;37.816;2023-02-07T05:53:49;101539.19;;;-6.40;69.38
62655;BME280;48717;55.556;37.816;2023-02-07T05:56:16;101564.19;;;-6.29;69.38
62655;BME280;48717;55.556;37.816;2023-02-07T05:58:43;101582.94;;;-6.30;69.67
62655;BME280;48717;55.556;37.816;2023-02-07T06:01:10;101565.28;;;-6.35;70.23
62655;BME280;48717;55.556;37.816;2023-02-07T06:03:37;101563.47;;;-6.27;69.42
62655;BME280;48717;55.556;37.816;2023-02-07T06:06:05;101562.25;;;-6.31;69.07
62655;BME280;48717;55.556;37.816;2023-02-07T06:08:32;101543.25;;;-6.42;69.68
62655;BME280;48717;55.556;37.816;2023-02-07T06:10:59;101567.34;;;-6.22;70.11
62655;BME280;48717;55.556;37.816;2023-02-07T06:13:26;101574.88;;;-6.15;70.06
62655;BME280;48717;55.556;37.816;2023-02-07T06:15:53;101580.00;;;-6.15;69.63
62655;BME280;48717;55.556;37.816;2023-02-07T06:18:21;101582.88;;;-6.12;69.29
62655;BME280;48717;55.556;37.816;2023-02-07T06:20:51;101575.16;;;-6.12;69.15
62655;BME280;48717;55.556;37.816;2023-02-07T06:23:18;101592.09;;;-6.14;69.04
62655;BME280;48717;55.556;37.816;2023-02-07T06:25:46;101593.13;;;-6.12;69.49
62655;BME280;48717;55.556;37.816;2023-02-07T06:28:13;101596.19;;;-6.16;69.25
62655;BME280;48717;55.556;37.816;2023-02-07T06:30:40;101578.81;;;-6.19;69.61
62655;BME280;48717;55.556;37.816;2023-02-07T06:33:07;101590.88;;;-6.09;69.21
62655;BME280;48717;55.556;37.816;2023-02-07T06:35:34;101592.22;;;-6.04;69.31
62655;BME280;48717;55.556;37.816;2023-02-07T06:38:02;101590.06;;;-5.99;68.52
62655;BME280;48717;55.556;37.816;2023-02-07T06:40:29;101565.22;;;-6.18;69.19
62655;BME280;48717;55.556;37.816;2023-02-07T06:42:56;101586.56;;;-5.99;68.45
62655;BME280;48717;55.556;37.816;2023-02-07T06:45:23;101606.06;;;-6.02;68.35
62655;BME280;48717;55.556;37.816;2023-02-07T06:47:50;101612.22;;;-5.91;68.20
62655;BME280;48717;55.556;37.816;2023-02-07T06:50:28;101615.84;;;-5.97;68.48
62655;BME280;48717;55.556;37.816;2023-02-07T06:52:55;101581.84;;;-6.14;68.50
62655;BME280;48717;55.556;37.816;2023-02-07T06:55:28;101606.56;;;-6.06;68.56
62655;BME280;48717;55.556;37.816;2023-02-07T06:57:56;101616.78;;;-5.97;69.09
62655;BME280;48717;55.556;37.816;2023-02-07T07:00:24;101611.88;;;-5.85;69.23
62655;BME280;48717;55.556;37.816;2023-02-07T07:02:51;101626.94;;;-5.70;69.02
62655;BME280;48717;55.556;37.816;2023-02-07T07:05:18;101628.09;;;-5.58;68.04
62655;BME280;48717;55.556;37.816;2023-02-07T07:07:46;101598.19;;;-5.66;68.93
62655;BME280;48717;55.556;37.816;2023-02-07T07:10:14;101622.00;;;-5.50;67.75
62655;BME280;48717;55.556;37.816;2023-02-07T07:12:41;101625.00;;;-5.45;67.84
62655;BME280;48717;55.556;37.816;2023-02-07T07:15:08;101631.47;;;-5.40;68.11
62655;BME280;48717;55.556;37.816;2023-02-07T07:17:35;101651.88;;;-5.32;67.95
62655;BME280;48717;55.556;37.816;2023-02-07T07:20:03;101654.00;;;-5.37;67.50
62655;BME280;48717;55.556;37.816;2023-02-07T07:22:30;101648.84;;;-5.37;67.69
62655;BME280;48717;55.556;37.816;2023-02-07T07:24:57;101667.56;;;-5.29;67.46
62655;BME280;48717;55.556;37.816;2023-02-07T07:27:24;101653.59;;;-5.22;67.62
62655;BME280;48717;55.556;37.816;2023-02-07T07:29:51;101658.06;;;-5.11;67.17
62655;BME280;48717;55.556;37.816;2023-02-07T07:32:19;101662.53;;;-5.00;66.20
62655;BME280;48717;55.556;37.816;2023-02-07T07:35:01;101674.28;;;-4.93;65.55
62655;BME280;48717;55.556;37.816;2023-02-07T07:37:30;101671.22;;;-4.89;66.28
62655;BME280;48717;55.556;37.816;2023-02-07T07:39:57;101650.84;;;-4.96;65.59
62655;BME280;48717;55.556;37.816;2023-02-07T07:42:24;101676.59;;;-4.77;65.54
62655;BME280;48717;55.556;37.816;2023-02-07T07:45:06;101677.19;;;-4.79;65.37
62655;BME280;48717;55.556;37.816;2023-02-07T07:47:33;101585.88;;;-5.32;65.18
62655;BME280;48717;55.556;37.816;2023-02-07T07:50:00;101675.25;;;-4.82;64.54
62655;BME280;48717;55.556;37.816;2023-02-07T07:52:29;101661.00;;;-4.98;64.82
62655;BME280;48717;55.556;37.816;2023-02-07T07:54:56;101682.06;;;-5.02;64.83
62655;BME280;48717;55.556;37.816;2023-02-07T07:57:23;101649.50;;;-5.20;65.52
62655;BME280;48717;55.556;37.816;2023-02-07T07:59:54;101659.25;;;-5.07;64.83
62655;BME280;48717;55.556;37.816;2023-02-07T08:02:22;101657.66;;;-4.96;65.43
62655;BME280;48717;55.556;37.816;2023-02-07T08:04:50;101682.00;;;-4.74;65.38
62655;BME280;48717;55.556;37.816;2023-02-07T08:07:17;101685.91;;;-4.68;65.48
62655;BME280;48717;55.556;37.816;2023-02-07T08:09:44;101653.97;;;-4.90;64.54
62655;BME280;48717;55.556;37.816;2023-02-07T08:12:11;101689.53;;;-4.66;63.58
62655;BME280;48717;55.556;37.816;2023-02-07T08:14:38;101686.13;;;-4.56;64.47
62655;BME280;48717;55.556;37.816;2023-02-07T08:17:05;101679.53;;;-4.63;63.95
62655;BME280;48717;55.556;37.816;2023-02-07T08:19:32;101677.97;;;-4.61;63.00
62655;BME280;48717;55.556;37.816;2023-02-07T08:21:59;101678.53;;;-4.55;63.92
62655;BME280;48717;55.556;37.816;2023-02-07T08:24:26;101671.84;;;-4.53;64.25
62655;BME280;48717;55.556;37.816;2023-02-07T08:26:55;101696.34;;;-4.48;62.92
62655;BME280;48717;55.556;37.816;2023-02-07T08:29:22;101694.84;;;-4.65;62.14
62655;BME280;48717;55.556;37.816;2023-02-07T08:31:49;101700.47;;;-4.69;63.48
62655;BME280;48717;55.556;37.816;2023-02-07T08:34:16;101679.38;;;-4.84;63.25
62655;BME280;48717;55.556;37.816;2023-02-07T08:36:44;101662.97;;;-4.76;63.46
62655;BME280;48717;55.556;37.816;2023-02-07T08:39:11;101699.84;;;-4.66;62.64
62655;BME280;48717;55.556;37.816;2023-02-07T08:41:38;101678.59;;;-5.02;62.97
62655;BME280;48717;55.556;37.816;2023-02-07T08:44:05;101697.59;;;-4.91;63.35
62655;BME280;48717;55.556;37.816;2023-02-07T08:46:32;101670.34;;;-4.89;62.37
62655;BME280;48717;55.556;37.816;2023-02-07T08:48:59;101687.44;;;-4.70;62.59
62655;BME280;48717;55.556;37.816;2023-02-07T08:51:26;101672.69;;;-4.63;63.52
62655;BME280;48717;55.556;37.816;2023-02-07T08:53:53;101667.16;;;-4.67;62.90
62655;BME280;48717;55.556;37.816;2023-02-07T08:56:20;101683.97;;;-4.52;62.76
62655;BME280;48717;55.556;37.816;2023-02-07T08:58:47;101680.13;;;-4.47;61.54
62655;BME280;48717;55.556;37.816;2023-02-07T09:01:14;101698.72;;;-4.40;62.47
62655;BME280;48717;55.556;37.816;2023-02-07T09:03:41;101702.59;;;-4.35;61.53
62655;BME280;48717;55.556;37.816;2023-02-07T09:06:08;101706.25;;;-4.72;61.47
62655;BME280;48717;55.556;37.816;2023-02-07T09:08:36;101681.31;;;-5.01;63.05
62655;BME280;48717;55.556;37.816;2023-02-07T09:11:05;101711.22;;;-4.92;63.55
62655;BME280;48717;55.556;37.816;2023-02-07T09:13:35;101702.34;;;-4.77;64.18
62655;BME280;48717;55.556;37.816;2023-02-07T09:16:02;101703.25;;;-4.57;62.55
62655;BME280;48717;55.556;37.816;2023-02-07T09:18:29;101691.41;;;-4.55;61.07
62655;BME280;48717;55.556;37.816;2023-02-07T09:20:56;101698.16;;;-4.47;62.92
62655;BME280;48717;55.556;37.816;2023-02-07T09:23:23;101697.50;;;-4.44;61.57
62655;BME280;48717;55.556;37.816;2023-02-07T09:25:51;101690.28;;;-4.48;61.91
62655;BME280;48717;55.556;37.816;2023-02-07T09:28:22;101709.34;;;-4.27;60.92
62655;BME280;48717;55.556;37.816;2023-02-07T09:31:58;101691.16;;;-4.09;61.78
62655;BME280;48717;55.556;37.816;2023-02-07T09:34:26;101704.34;;;-3.96;59.76
62655;BME280;48717;55.556;37.816;2023-02-07T09:36:53;101710.84;;;-3.80;60.21
62655;BME280;48717;55.556;37.816;2023-02-07T09:39:20;101706.47;;;-3.71;60.67
62655;BME280;48717;55.556;37.816;2023-02-07T09:44:53;101700.81;;;-4.07;59.88
62655;BME280;48717;55.556;37.816;2023-02-07T09:47:24;101708.34;;;-3.99;60.24
62655;BME280;48717;55.556;37.816;2023-02-07T09:55:31;101706.66;;;-3.59;57.57
62655;BME280;48717;55.556;37.816;2023-02-07T09:58:16;101717.41;;;-3.44;58.52
62655;BME280;48717;55.556;37.816;2023-02-07T10:00:51;101699.56;;;-3.61;58.06
62655;BME280;48717;55.556;37.816;2023-02-07T10:03:23;101695.16;;;-3.62;58.49
62655;BME280;48717;55.556;37.816;2023-02-07T10:05:58;101725.91;;;-3.45;58.43
62655;BME280;48717;55.556;37.816;2023-02-07T10:08:46;101676.97;;;-3.74;58.65
62655;BME280;48717;55.556;37.816;2023-02-07T10:30:20;101728.56;;;-4.23;60.30
62655;BME280;48717;55.556;37.816;2023-02-07T10:33:14;101723.81;;;-4.18;59.91
62655;BME280;48717;55.556;37.816;2023-02-07T10:35:43;101721.66;;;-4.33;59.54
62655;BME280;48717;55.556;37.816;2023-02-07T10:41:21;101727.53;;;-4.44;60.36
62655;BME280;48717;55.556;37.816;2023-02-07T10:43:50;101715.28;;;-4.66;60.38
62655;BME280;48717;55.556;37.816;2023-02-07T10:46:19;101732.00;;;-4.52;62.11
62655;BME280;48717;55.556;37.816;2023-02-07T10:48:53;101726.00;;;-4.42;61.53
62655;BME280;48717;55.556;37.816;2023-02-07T10:51:32;101585.31;;;-5.00;61.32
62655;BME280;48717;55.556;37.816;2023-02-07T10:54:07;101719.88;;;-4.04;61.46
62655;BME280;48717;55.556;37.816;2023-02-07T10:56:40;101713.75;;;-3.96;59.73
62655;BME280;48717;55.556;37.816;2023-02-07T10:59:42;101727.56;;;-3.85;59.64
62655;BME280;48717;55.556;37.816;2023-02-07T11:10:37;101699.09;;;-4.16;60.40
62655;BME280;48717;55.556;37.816;2023-02-07T11:13:12;101711.19;;;-4.15;61.00
62655;BME280;48717;55.556;37.816;2023-02-07T11:16:05;101741.00;;;-4.09;60.47
62655;BME280;48717;55.556;37.816;2023-02-07T11:18:40;101742.13;;;-4.15;60.96
62655;BME280;48717;55.556;37.816;2023-02-07T11:21:23;101740.19;;;-4.37;61.06
62655;BME280;48717;55.556;37.816;2023-02-07T11:23:56;101747.22;;;-4.45;62.40
62655;BME280;48717;55.556;37.816;2023-02-07T11:26:27;101753.16;;;-4.46;62.45
62655;BME280;48717;55.556;37.816;2023-02-07T11:29:16;101755.03;;;-4.54;61.94
62655;BME280;48717;55.556;37.816;2023-02-07T11:31:45;101751.63;;;-4.63;62.19
62655;BME280;48717;55.556;37.816;2023-02-07T11:34:47;101731.41;;;-4.78;61.69
62655;BME280;48717;55.556;37.816;2023-02-07T11:39:44;101715.53;;;-5.02;62.40
62655;BME280;48717;55.556;37.816;2023-02-07T11:42:16;101722.44;;;-4.92;62.46
62655;BME280;48717;55.556;37.816;2023-02-07T11:44:46;101760.06;;;-4.64;62.90
62655;BME280;48717;55.556;37.816;2023-02-07T11:47:24;101742.28;;;-4.72;62.14
62655;BME280;48717;55.556;37.816;2023-02-07T11:49:55;101750.06;;;-4.61;62.34
62655;BME280;48717;55.556;37.816;2023-02-07T11:52:24;101754.25;;;-4.53;62.17
62655;BME280;48717;55.556;37.816;2023-02-07T11:54:56;101738.50;;;-4.56;61.09
62655;BME280;48717;55.556;37.816;2023-02-07T11:57:27;101735.44;;;-4.71;61.98
62655;BME280;48717;55.556;37.816;2023-02-07T12:00:06;101746.19;;;-4.66;61.39
62655;BME280;48717;55.556;37.816;2023-02-07T12:02:50;101762.25;;;-4.69;61.96
62655;BME280;48717;55.556;37.816;2023-02-07T12:05:28;101759.53;;;-4.70;63.82
62655;BME280;48717;55.556;37.816;2023-02-07T12:07:59;101756.19;;;-4.69;62.87
62655;BME280;48717;55.556;37.816;2023-02-07T12:10:32;101759.81;;;-4.67;62.98
62655;BME280;48717;55.556;37.816;2023-02-07T12:16:26;101770.94;;;-4.77;63.91
62655;BME280;48717;55.556;37.816;2023-02-07T12:19:03;101760.47;;;-4.79;64.17
62655;BME280;48717;55.556;37.816;2023-02-07T12:21:36;101763.44;;;-4.65;62.69
62655;BME280;48717;55.556;37.816;2023-02-07T12:24:25;101749.94;;;-4.63;62.66
62655;BME280;48717;55.556;37.816;2023-02-07T12:34:54;101757.88;;;-4.70;62.57
62655;BME280;48717;55.556;37.816;2023-02-07T12:45:02;101777.25;;;-4.46;63.04
62655;BME280;48717;55.556;37.816;2023-02-07T12:53:30;101769.72;;;-4.53;63.17
62655;BME280;48717;55.556;37.816;2023-02-07T12:58:42;101786.75;;;-4.44;64.43
62655;BME280;48717;55.556;37.816;2023-02-07T13:01:23;101776.09;;;-4.58;63.26
62655;BME280;48717;55.556;37.816;2023-02-07T13:07:15;101790.94;;;-4.55;64.25
62655;BME280;48717;55.556;37.816;2023-02-07T13:12:37;101777.22;;;-4.65;63.45
62655;BME280;48717;55.556;37.816;2023-02-07T13:23:33;101795.00;;;-4.77;64.14
62655;BME280;48717;55.556;37.816;2023-02-07T13:26:07;101773.63;;;-5.04;64.76
62655;BME280;48717;55.556;37.816;2023-02-07T13:28:38;101805.56;;;-5.02;65.41
62655;BME280;48717;55.556;37.816;2023-02-07T13:31:12;101783.72;;;-5.25;64.59
62655;BME280;48717;55.556;37.816;2023-02-07T13:33:41;101795.34;;;-5.19;64.54
62655;BME280;48717;55.556;37.816;2023-02-07T13:50:46;101742.78;;;-5.86;65.55
62655;BME280;48717;55.556;37.816;2023-02-07T13:55:51;101769.38;;;-5.86;66.30
62655;BME280;48717;55.556;37.816;2023-02-07T14:01:26;101787.50;;;-5.67;66.98
62655;BME280;48717;55.556;37.816;2023-02-07T14:04:05;101800.03;;;-5.61;67.24
62655;BME280;48717;55.556;37.816;2023-02-07T14:06:41;101657.09;;;-6.50;66.70
62655;BME280;48717;55.556;37.816;2023-02-07T14:11:43;101784.03;;;-5.85;67.07
62655;BME280;48717;55.556;37.816;2023-02-07T14:16:51;101810.50;;;-5.86;66.71
62655;BME280;48717;55.556;37.816;2023-02-07T14:30:21;101810.25;;;-6.16;67.83
62655;BME280;48717;55.556;37.816;2023-02-07T14:36:02;101832.00;;;-6.12;68.31
62655;BME280;48717;55.556;37.816;2023-02-07T14:38:40;101821.13;;;-6.18;68.44
62655;BME280;48717;55.556;37.816;2023-02-07T14:41:08;101821.72;;;-6.12;68.59
62655;BME280;48717;55.556;37.816;2023-02-07T14:48:53;101835.16;;;-6.14;68.56
62655;BME280;48717;55.556;37.816;2023-02-07T14:54:02;101825.63;;;-6.24;68.60
62655;BME280;48717;55.556;37.816;2023-02-07T15:02:44;101826.53;;;-6.33;69.35
62655;BME280;48717;55.556;37.816;2023-02-07T15:08:24;101839.84;;;-6.28;69.08
62655;BME280;48717;55.556;37.816;2023-02-07T15:11:08;101815.63;;;-6.48;69.44
62655;BME280;48717;55.556;37.816;2023-02-07T15:13:41;101817.16;;;-6.50;70.35
62655;BME280;48717;55.556;37.816;2023-02-07T15:18:43;101849.81;;;-6.22;70.56
62655;BME280;48717;55.556;37.816;2023-02-07T15:21:39;101853.00;;;-6.25;70.32
62655;BME280;48717;55.556;37.816;2023-02-07T15:24:16;101823.06;;;-6.42;70.28
62655;BME280;48717;55.556;37.816;2023-02-07T15:26:48;101850.69;;;-6.39;70.39
62655;BME280;48717;55.556;37.816;2023-02-07T15:29:23;101836.19;;;-6.57;69.86
62655;BME280;48717;55.556;37.816;2023-02-07T15:31:52;101851.91;;;-6.53;70.67
62655;BME280;48717;55.556;37.816;2023-02-07T15:34:23;101869.41;;;-6.49;70.71
62655;BME280;48717;55.556;37.816;2023-02-07T15:36:51;101874.56;;;-6.49;70.29
62655;BME280;48717;55.556;37.816;2023-02-07T15:39:21;101865.34;;;-6.47;70.97
62655;BME280;48717;55.556;37.816;2023-02-07T15:41:49;101857.66;;;-6.38;71.02
62655;BME280;48717;55.556;37.816;2023-02-07T15:44:32;101869.75;;;-6.37;70.72
62655;BME280;48717;55.556;37.816;2023-02-07T15:52:45;101880.28;;;-6.43;70.81
62655;BME280;48717;55.556;37.816;2023-02-07T15:58:17;101812.22;;;-6.91;70.82
62655;BME280;48717;55.556;37.816;2023-02-07T16:00:47;101872.44;;;-6.53;71.23
62655;BME280;48717;55.556;37.816;2023-02-07T16:03:20;101866.38;;;-6.63;71.57
62655;BME280;48717;55.556;37.816;2023-02-07T16:05:48;101889.31;;;-6.56;70.98